createdAt,value
2019-04-03T00:01:35.054Z,26.30
2019-04-03T00:04:04.952Z,24.77
2019-04-03T00:06:35.377Z,24.30
2019-04-03T00:09:07.430Z,29.27
2019-04-03T00:11:39.254Z,21.27
2019-04-03T00:14:08.812Z,25.07
2019-04-03T00:16:38.259Z,25.90
2019-04-03T00:19:07.553Z,20.73
2019-04-03T00:21:37.059Z,24.97
2019-04-03T00:24:06.445Z,21.07
2019-04-03T00:26:35.778Z,18.80
2019-04-03T00:29:05.386Z,19.97
2019-04-03T00:31:34.618Z,20.03
2019-04-03T00:34:03.895Z,28.07
2019-04-03T00:36:33.424Z,22.77
2019-04-03T00:39:02.660Z,22.13
2019-04-03T00:41:31.954Z,24.00
2019-04-03T00:44:01.539Z,26.10
2019-04-03T00:46:30.897Z,23.67
2019-04-03T00:49:00.227Z,19.63
2019-04-03T00:51:29.881Z,20.23
2019-04-03T00:53:59.253Z,22.47
2019-04-03T00:56:28.432Z,32.80
2019-04-03T00:58:58.031Z,14.53
2019-04-03T01:01:27.359Z,19.03
2019-04-03T01:03:56.806Z,18.80
2019-04-03T01:06:28.757Z,22.77
2019-04-03T01:08:59.429Z,19.03
2019-04-03T01:11:30.523Z,19.83
2019-04-03T01:14:01.840Z,20.03
2019-04-03T01:16:33.037Z,18.70
2019-04-03T01:19:05.192Z,26.00
2019-04-03T01:21:36.324Z,20.43
2019-04-03T01:24:07.539Z,26.47
2019-04-03T01:26:36.103Z,24.23
2019-04-03T01:29:05.503Z,20.13
2019-04-03T01:31:35.007Z,25.47
2019-04-03T01:34:04.537Z,21.80
2019-04-03T01:36:33.820Z,28.10
2019-04-03T01:39:03.100Z,27.17
2019-04-03T01:41:32.501Z,20.70
2019-04-03T01:44:02.076Z,21.53
2019-04-03T01:46:31.367Z,18.97
2019-04-03T01:49:00.859Z,25.77
2019-04-03T01:51:30.370Z,16.57
2019-04-03T01:54:02.373Z,29.33
2019-04-03T01:56:30.968Z,20.33
2019-04-03T01:59:00.352Z,20.53
2019-04-03T02:01:29.587Z,22.67
2019-04-03T02:03:58.965Z,20.40
2019-04-03T02:06:28.349Z,20.83
2019-04-03T02:08:57.772Z,23.73
2019-04-03T02:11:27.389Z,18.33
2019-04-03T02:13:56.789Z,20.03
2019-04-03T02:16:26.109Z,17.37
2019-04-03T02:18:55.983Z,26.93
2019-04-03T02:21:27.287Z,21.97
2019-04-03T02:23:56.596Z,25.90
2019-04-03T02:26:25.863Z,29.33
2019-04-03T02:28:55.219Z,26.87
2019-04-03T02:31:24.789Z,20.43
2019-04-03T02:33:54.118Z,22.73
2019-04-03T02:36:23.910Z,19.57
2019-04-03T02:38:53.741Z,21.63
2019-04-03T02:41:23.796Z,23.90
2019-04-03T02:43:53.143Z,19.03
2019-04-03T02:46:22.559Z,22.17
2019-04-03T02:48:51.859Z,23.70
2019-04-03T02:51:21.198Z,25.10
2019-04-03T02:53:51.244Z,20.73
2019-04-03T02:56:20.650Z,28.13
2019-04-03T02:58:53.577Z,26.67
2019-04-03T03:01:21.250Z,25.27
2019-04-03T03:03:50.704Z,25.13
2019-04-03T03:06:20.073Z,22.07
2019-04-03T03:08:49.859Z,16.63
2019-04-03T03:11:23.219Z,25.87
2019-04-03T03:13:51.684Z,17.83
2019-04-03T03:16:20.952Z,22.17
2019-04-03T03:18:50.564Z,22.23
2019-04-03T03:21:21.436Z,37.30
2019-04-03T03:23:51.211Z,30.13
2019-04-03T03:26:20.867Z,26.10
2019-04-03T03:28:50.590Z,19.73
2019-04-03T03:31:44.668Z,31.23
2019-04-03T03:33:51.856Z,26.13
2019-04-03T03:36:25.507Z,27.50
2019-04-03T03:38:54.130Z,24.23
2019-04-03T03:41:24.184Z,19.87
2019-04-03T03:43:55.825Z,21.17
2019-04-03T03:46:27.778Z,25.97
2019-04-03T03:48:56.558Z,20.67
2019-04-03T03:51:30.176Z,24.80
2019-04-03T03:53:58.702Z,24.10
2019-04-03T03:56:31.252Z,26.07
2019-04-03T03:59:00.181Z,22.13
2019-04-03T04:01:31.447Z,21.63
2019-04-03T04:04:01.060Z,27.60
2019-04-03T04:06:35.021Z,33.10
2019-04-03T04:09:02.581Z,32.13
2019-04-03T04:11:32.488Z,22.47
2019-04-03T04:14:01.907Z,24.50
2019-04-03T04:16:35.925Z,22.60
2019-04-03T04:19:02.363Z,31.60
2019-04-03T04:21:31.971Z,25.57
2019-04-03T04:24:01.572Z,24.50
2019-04-03T04:26:31.688Z,28.10
2019-04-03T04:29:02.753Z,22.17
2019-04-03T04:31:32.051Z,41.30
2019-04-03T04:34:01.366Z,22.17
2019-04-03T04:36:30.831Z,23.43
2019-04-03T04:39:00.137Z,19.80
2019-04-03T04:41:32.205Z,22.37
2019-04-03T04:44:00.701Z,19.23
2019-04-03T04:46:29.945Z,34.00
2019-04-03T04:48:59.203Z,26.27
2019-04-03T04:51:28.661Z,20.93
2019-04-03T04:53:59.494Z,27.90
2019-04-03T04:56:29.081Z,27.00
2019-04-03T04:58:58.452Z,34.57
2019-04-03T05:01:28.002Z,26.70
2019-04-03T05:03:57.441Z,28.07
2019-04-03T05:06:28.591Z,26.50
2019-04-03T05:08:57.881Z,29.10
2019-04-03T05:11:27.325Z,25.20
2019-04-03T05:13:56.683Z,25.70
2019-04-03T05:16:26.045Z,20.53
2019-04-03T05:19:08.400Z,30.87
2019-04-03T05:21:26.620Z,25.70
2019-04-03T05:23:58.086Z,32.33
2019-04-03T05:26:26.931Z,23.87
2019-04-03T05:28:57.761Z,34.80
2019-04-03T05:31:27.278Z,27.43
2019-04-03T05:33:56.571Z,31.57
2019-04-03T05:36:25.918Z,25.07
2019-04-03T05:38:55.407Z,26.10
2019-04-03T05:41:27.457Z,27.90
2019-04-03T05:43:56.028Z,33.00
2019-04-03T05:46:25.309Z,27.40
2019-04-03T05:48:54.631Z,34.47
2019-04-03T05:51:24.358Z,30.80
2019-04-03T05:53:54.455Z,29.03
2019-04-03T05:56:23.811Z,25.57
2019-04-03T05:58:55.938Z,27.83
2019-04-03T06:01:24.502Z,34.80
2019-04-03T06:03:53.753Z,29.87
2019-04-03T06:06:23.432Z,29.03
2019-04-03T06:08:53.018Z,32.67
2019-04-03T06:11:23.250Z,30.43
2019-04-03T06:13:52.820Z,28.00
2019-04-03T06:16:24.507Z,27.60
2019-04-03T06:18:53.157Z,26.67
2019-04-03T06:21:22.727Z,41.70
2019-04-03T06:23:52.730Z,27.17
2019-04-03T06:26:22.440Z,24.43
2019-04-03T06:28:51.995Z,34.50
2019-04-03T06:31:21.295Z,30.10
2019-04-03T06:33:51.634Z,26.43
2019-04-03T06:36:21.328Z,27.73
2019-04-03T06:38:50.603Z,26.10
2019-04-03T06:41:19.986Z,31.27
2019-04-03T06:43:50.413Z,27.63
2019-04-03T06:46:20.493Z,29.17
2019-04-03T06:48:49.801Z,28.03
2019-04-03T06:51:19.081Z,26.37
2019-04-03T06:53:48.364Z,28.37
2019-04-03T06:56:17.636Z,33.20
2019-04-03T06:58:47.071Z,28.67
2019-04-03T07:01:16.405Z,35.10
2019-04-03T07:03:45.898Z,36.03
2019-04-03T07:06:15.215Z,23.77
2019-04-03T07:08:44.510Z,22.80
2019-04-03T07:11:23.211Z,28.00
2019-04-03T07:13:44.937Z,28.17
2019-04-03T07:16:14.212Z,30.13
2019-04-03T07:18:43.566Z,30.50
2019-04-03T07:21:12.923Z,27.63
2019-04-03T07:23:42.334Z,27.67
2019-04-03T07:26:11.965Z,24.97
2019-04-03T07:28:42.350Z,28.37
2019-04-03T07:31:12.191Z,25.40
2019-04-03T07:33:41.449Z,25.80
2019-04-03T07:36:11.603Z,24.07
2019-04-03T07:38:41.191Z,29.73
2019-04-03T07:41:10.487Z,31.37
2019-04-03T07:43:40.262Z,29.23
2019-04-03T07:46:09.763Z,35.97
2019-04-03T07:48:39.307Z,26.03
2019-04-03T07:51:08.601Z,28.97
2019-04-03T07:53:38.272Z,25.57
2019-04-03T07:56:08.094Z,35.97
2019-04-03T07:58:37.481Z,30.57
2019-04-03T08:01:09.438Z,28.40
2019-04-03T08:03:38.091Z,34.33
2019-04-03T08:06:07.410Z,26.50
2019-04-03T08:08:37.143Z,29.73
2019-04-03T08:11:06.540Z,26.70
2019-04-03T08:13:38.158Z,25.50
2019-04-03T08:16:07.225Z,30.87
2019-04-03T08:18:36.460Z,27.83
2019-04-03T08:21:06.003Z,31.27
2019-04-03T08:23:37.075Z,29.30
2019-04-03T08:26:06.579Z,41.97
2019-04-03T08:28:35.990Z,30.70
2019-04-03T08:31:05.615Z,26.47
2019-04-03T08:33:35.067Z,30.50
2019-04-03T08:36:06.643Z,29.40
2019-04-03T08:38:35.904Z,30.00
2019-04-03T08:41:05.283Z,37.77
2019-04-03T08:43:34.846Z,27.57
2019-04-03T08:46:04.171Z,30.57
2019-04-03T08:48:33.467Z,27.17
2019-04-03T08:51:03.833Z,28.33
2019-04-03T08:53:33.212Z,29.60
2019-04-03T08:56:02.557Z,25.80
2019-04-03T08:58:32.579Z,29.53
2019-04-03T09:01:04.020Z,27.03
2019-04-03T09:03:33.172Z,27.27
2019-04-03T09:06:02.479Z,30.33
2019-04-03T09:08:31.761Z,30.00
2019-04-03T09:11:04.189Z,29.57
2019-04-03T09:13:32.342Z,26.57
2019-04-03T09:16:01.604Z,29.43
2019-04-03T09:18:31.065Z,25.90
2019-04-03T09:21:00.403Z,32.00
2019-04-03T09:23:29.681Z,31.27
2019-04-03T09:25:59.131Z,32.03
2019-04-03T09:28:28.434Z,27.73
2019-04-03T09:30:57.737Z,32.50
2019-04-03T09:33:29.620Z,25.33
2019-04-03T09:35:59.556Z,29.30
2019-04-03T09:38:29.332Z,28.90
2019-04-03T09:40:58.678Z,26.90
2019-04-03T09:43:27.976Z,28.87
2019-04-03T09:45:59.329Z,31.30
2019-04-03T09:48:28.794Z,28.07
2019-04-03T09:50:58.694Z,28.60
2019-04-03T09:53:27.904Z,38.13
2019-04-03T09:55:57.267Z,28.37
2019-04-03T09:58:26.852Z,44.10
2019-04-03T10:00:56.185Z,29.53
2019-04-03T10:03:25.460Z,28.57
2019-04-03T10:05:55.301Z,34.30
2019-04-03T10:08:24.885Z,28.47
2019-04-03T10:10:54.505Z,29.33
2019-04-03T10:13:26.138Z,25.23
2019-04-03T10:15:55.035Z,29.93
2019-04-03T10:18:24.306Z,30.30
2019-04-03T10:20:54.136Z,29.53
2019-04-03T10:23:23.466Z,30.57
2019-04-03T10:25:53.657Z,34.37
2019-04-03T10:28:23.314Z,30.67
2019-04-03T10:30:53.589Z,32.40
2019-04-03T10:33:23.404Z,30.77
2019-04-03T10:35:52.914Z,31.60
2019-04-03T10:38:22.252Z,30.13
2019-04-03T10:40:51.521Z,28.57
2019-04-03T10:43:21.173Z,34.03
2019-04-03T10:45:50.527Z,35.73
2019-04-03T10:48:19.856Z,33.87
2019-04-03T10:50:49.363Z,30.60
2019-04-03T10:53:20.015Z,31.43
2019-04-03T10:55:49.596Z,38.53
2019-04-03T10:58:19.153Z,34.73
2019-04-03T11:00:49.335Z,39.20
2019-04-03T11:03:18.660Z,29.93
2019-04-03T11:05:48.539Z,35.43
2019-04-03T11:08:18.053Z,30.37
2019-04-03T11:10:47.508Z,33.80
2019-04-03T11:13:16.999Z,36.13
2019-04-03T11:15:46.287Z,35.77
2019-04-03T11:18:15.695Z,38.47
2019-04-03T11:20:45.554Z,31.03
2019-04-03T11:23:14.825Z,32.57
2019-04-03T11:25:45.978Z,31.90
2019-04-03T11:28:15.475Z,36.50
2019-04-03T11:30:44.788Z,39.90
2019-04-03T11:33:14.797Z,33.90
2019-04-03T11:35:44.593Z,33.67
2019-04-03T11:38:24.046Z,37.90
2019-04-03T11:40:45.442Z,32.20
2019-04-03T11:43:14.822Z,33.37
2019-04-03T11:45:44.198Z,40.60
2019-04-03T11:48:16.415Z,36.17
2019-04-03T11:50:44.646Z,34.97
2019-04-03T11:53:14.089Z,32.40
2019-04-03T11:55:43.436Z,41.20
2019-04-03T11:58:12.833Z,35.30
2019-04-03T12:00:45.430Z,34.20
2019-04-03T12:03:14.751Z,35.93
2019-04-03T12:05:45.650Z,31.83
2019-04-03T12:08:15.311Z,35.17
2019-04-03T12:10:44.945Z,41.47
2019-04-03T12:13:14.532Z,33.70
2019-04-03T12:15:44.816Z,32.47
2019-04-03T12:18:14.562Z,39.67
2019-04-03T12:20:45.611Z,40.37
2019-04-03T12:23:15.051Z,33.60
2019-04-03T12:25:44.756Z,33.83
2019-04-03T12:28:14.241Z,40.70
2019-04-03T12:30:43.744Z,35.63
2019-04-03T12:33:13.330Z,37.30
2019-04-03T12:35:42.935Z,33.27
2019-04-03T12:38:12.527Z,38.37
2019-04-03T12:40:42.234Z,37.93
2019-04-03T12:43:11.885Z,33.83
2019-04-03T12:45:41.841Z,42.17
2019-04-03T12:48:11.183Z,36.77
2019-04-03T12:50:40.437Z,35.93
2019-04-03T12:53:09.799Z,39.70
2019-04-03T12:55:41.689Z,37.40
2019-04-03T12:58:10.142Z,41.60
2019-04-03T13:00:39.426Z,42.20
2019-04-03T13:03:08.834Z,34.70
2019-04-03T13:05:38.610Z,36.23
2019-04-03T13:08:08.091Z,37.90
2019-04-03T13:10:42.499Z,37.73
2019-04-03T13:13:08.446Z,44.13
2019-04-03T13:15:38.570Z,47.07
2019-04-03T13:18:07.880Z,39.20
2019-04-03T13:20:37.659Z,38.47
2019-04-03T13:23:07.769Z,38.03
2019-04-03T13:25:37.089Z,39.33
2019-04-03T13:28:06.439Z,38.40
2019-04-03T13:30:35.805Z,37.70
2019-04-03T13:33:07.089Z,43.37
2019-04-03T13:35:36.493Z,39.80
2019-04-03T13:38:06.270Z,35.50
2019-04-03T13:40:37.733Z,44.47
2019-04-03T13:43:07.075Z,36.23
2019-04-03T13:45:36.702Z,42.70
2019-04-03T13:48:05.933Z,40.43
2019-04-03T13:50:35.821Z,40.53
2019-04-03T13:53:05.357Z,33.57
2019-04-03T13:55:38.720Z,41.20
2019-04-03T13:58:05.984Z,43.60
2019-04-03T14:00:35.258Z,39.13
2019-04-03T14:03:04.760Z,38.90
2019-04-03T14:05:34.289Z,40.00
2019-04-03T14:08:06.443Z,45.77
2019-04-03T14:10:35.176Z,55.47
2019-04-03T14:13:04.924Z,44.23
2019-04-03T14:15:34.406Z,38.30
2019-04-03T14:18:03.836Z,45.47
2019-04-03T14:20:33.430Z,43.07
2019-04-03T14:23:03.976Z,43.60
2019-04-03T14:25:37.606Z,42.40
2019-04-03T14:28:04.884Z,41.80
2019-04-03T14:30:34.173Z,41.90
2019-04-03T14:33:03.653Z,47.47
2019-04-03T14:35:48.104Z,37.63
2019-04-03T14:38:04.353Z,45.47
2019-04-03T14:40:33.915Z,41.50
2019-04-03T14:43:03.342Z,43.77
2019-04-03T14:45:32.642Z,42.80
2019-04-03T14:48:01.941Z,47.63
2019-04-03T14:50:31.546Z,40.60
2019-04-03T14:53:00.811Z,40.60
2019-04-03T14:55:30.105Z,37.63
2019-04-03T14:57:59.770Z,44.17
2019-04-03T15:00:31.269Z,39.70
2019-04-03T15:03:00.531Z,44.40
2019-04-03T15:05:29.822Z,39.53
2019-04-03T15:07:59.153Z,45.17
2019-04-03T15:10:30.641Z,42.40
2019-04-03T15:13:00.071Z,45.47
2019-04-03T15:15:29.427Z,37.93
2019-04-03T15:17:58.919Z,42.47
2019-04-03T15:20:28.490Z,44.77
2019-04-03T15:22:58.111Z,42.77
2019-04-03T15:25:28.863Z,42.33
2019-04-03T15:27:59.884Z,43.60
2019-04-03T15:30:29.623Z,50.53
2019-04-03T15:32:59.247Z,36.93
2019-04-03T15:35:31.622Z,44.13
2019-04-03T15:38:00.357Z,47.17
2019-04-03T15:40:29.938Z,41.87
2019-04-03T15:42:59.396Z,40.50
2019-04-03T15:45:28.805Z,46.43
2019-04-03T15:47:58.529Z,53.23
2019-04-03T15:50:30.190Z,45.30
2019-04-03T15:52:59.272Z,46.37
2019-04-03T15:55:28.851Z,47.67
2019-04-03T15:57:58.446Z,46.27
2019-04-03T16:00:28.599Z,47.30
2019-04-03T16:02:58.124Z,44.23
2019-04-03T16:05:30.127Z,44.80
2019-04-03T16:07:58.829Z,48.00
2019-04-03T16:10:28.104Z,48.33
2019-04-03T16:12:57.770Z,49.13
2019-04-03T16:15:27.737Z,41.50
2019-04-03T16:17:57.051Z,49.00
2019-04-03T16:20:26.511Z,48.70
2019-04-03T16:22:56.206Z,45.60
2019-04-03T16:25:25.559Z,47.57
2019-04-03T16:27:55.580Z,43.87
2019-04-03T16:30:25.351Z,48.60
2019-04-03T16:32:57.150Z,55.33
2019-04-03T16:35:25.970Z,44.60
2019-04-03T16:37:56.648Z,56.13
2019-04-03T16:40:26.250Z,47.17
2019-04-03T16:42:55.744Z,48.80
2019-04-03T16:45:25.521Z,46.23
2019-04-03T16:47:55.208Z,47.87
2019-04-03T16:50:27.268Z,47.10
2019-04-03T16:52:56.489Z,49.03
2019-04-03T16:55:26.183Z,42.43
2019-04-03T16:57:56.188Z,39.70
2019-04-03T17:00:25.594Z,45.27
2019-04-03T17:02:56.108Z,46.23
2019-04-03T17:05:26.622Z,45.17
2019-04-03T17:07:56.046Z,50.30
2019-04-03T17:10:25.294Z,50.97
2019-04-03T17:12:55.033Z,48.87
2019-04-03T17:15:24.649Z,48.10
2019-04-03T17:17:53.973Z,53.03
2019-04-03T17:20:24.732Z,53.80
2019-04-03T17:22:54.155Z,47.90
2019-04-03T17:25:23.437Z,50.90
2019-04-03T17:27:56.527Z,50.67
2019-04-03T17:30:24.073Z,49.07
2019-04-03T17:32:53.391Z,46.83
2019-04-03T17:35:22.809Z,48.07
2019-04-03T17:37:52.189Z,58.40
2019-04-03T17:40:21.498Z,51.90
2019-04-03T17:42:50.882Z,48.87
2019-04-03T17:45:20.232Z,59.00
2019-04-03T17:47:52.186Z,53.67
2019-04-03T17:50:20.824Z,50.70
2019-04-03T17:52:50.091Z,60.60
2019-04-03T17:55:19.369Z,52.13
2019-04-03T17:57:48.937Z,53.60
2019-04-03T18:00:20.914Z,56.87
2019-04-03T18:02:50.947Z,54.37
2019-04-03T18:05:20.309Z,51.30
2019-04-03T18:07:49.651Z,47.43
2019-04-03T18:10:19.236Z,49.60
2019-04-03T18:12:50.184Z,46.87
2019-04-03T18:15:21.061Z,52.00
2019-04-03T18:17:50.378Z,48.37
2019-04-03T18:20:20.067Z,61.33
2019-04-03T18:22:51.060Z,51.40
2019-04-03T18:25:20.836Z,59.43
2019-04-03T18:27:50.381Z,56.73
2019-04-03T18:30:21.255Z,58.07
2019-04-03T18:32:50.540Z,51.67
2019-04-03T18:35:20.048Z,55.13
2019-04-03T18:37:49.395Z,54.13
2019-04-03T18:40:18.710Z,52.87
2019-04-03T18:42:50.200Z,55.67
2019-04-03T18:45:25.040Z,55.43
2019-04-03T18:47:51.147Z,50.60
2019-04-03T18:50:20.702Z,57.60
2019-04-03T18:52:49.995Z,52.83
2019-04-03T18:55:19.327Z,54.63
2019-04-03T18:57:50.338Z,54.93
2019-04-03T19:00:20.238Z,48.53
2019-04-03T19:02:49.533Z,55.83
2019-04-03T19:05:18.828Z,54.33
2019-04-03T19:07:48.298Z,54.90
2019-04-03T19:10:18.750Z,52.97
2019-04-03T19:12:48.146Z,56.17
2019-04-03T19:15:17.756Z,59.37
2019-04-03T19:17:59.008Z,54.80
2019-04-03T19:20:18.464Z,57.60
2019-04-03T19:22:47.923Z,51.87
2019-04-03T19:25:17.296Z,51.13
2019-04-03T19:27:49.581Z,53.03
2019-04-03T19:30:18.416Z,53.13
2019-04-03T19:32:47.846Z,53.43
2019-04-03T19:35:17.348Z,51.53
2019-04-03T19:37:46.969Z,51.63
2019-04-03T19:40:16.238Z,53.30
2019-04-03T19:42:48.659Z,51.53
2019-04-03T19:45:16.773Z,51.07
2019-04-03T19:47:46.149Z,55.87
2019-04-03T19:50:15.511Z,59.07
2019-04-03T19:52:45.025Z,58.30
2019-04-03T19:55:14.620Z,48.83
2019-04-03T19:57:44.184Z,50.07
2019-04-03T20:00:13.857Z,48.53
2019-04-03T20:02:43.687Z,49.03
2019-04-03T20:05:13.332Z,57.80
2019-04-03T20:07:42.795Z,53.50
2019-04-03T20:10:12.382Z,50.43
2019-04-03T20:12:41.730Z,53.70
2019-04-03T20:15:11.437Z,55.87
2019-04-03T20:17:40.805Z,68.60
2019-04-03T20:20:10.962Z,52.10
2019-04-03T20:22:42.389Z,49.23
2019-04-03T20:25:14.531Z,47.43
2019-04-03T20:27:43.004Z,50.30
2019-04-03T20:30:13.420Z,53.50
2019-04-03T20:32:42.819Z,53.37
2019-04-03T20:35:12.302Z,43.20
2019-04-03T20:37:43.859Z,42.93
2019-04-03T20:40:12.792Z,49.73
2019-04-03T20:42:42.361Z,42.07
2019-04-03T20:45:11.781Z,43.53
2019-04-03T20:47:41.167Z,45.17
2019-04-03T20:50:10.672Z,46.30
2019-04-03T20:52:39.936Z,40.50
2019-04-03T20:55:09.285Z,40.27
2019-04-03T20:57:38.670Z,41.13
2019-04-03T21:00:12.488Z,42.33
2019-04-03T21:02:42.255Z,40.70
2019-04-03T21:05:13.559Z,43.23
2019-04-03T21:07:42.961Z,48.53
2019-04-03T21:10:12.604Z,47.97
2019-04-03T21:12:41.931Z,48.80
2019-04-03T21:15:13.711Z,49.60
2019-04-03T21:17:42.473Z,52.17
2019-04-03T21:20:12.004Z,44.37
2019-04-03T21:22:41.333Z,44.03
2019-04-03T21:25:10.731Z,46.10
2019-04-03T21:27:40.722Z,35.90
2019-04-03T21:30:10.424Z,52.33
2019-04-03T21:32:39.669Z,50.23
2019-04-03T21:35:09.023Z,51.40
2019-04-03T21:37:40.513Z,43.00
2019-04-03T21:40:09.663Z,40.63
2019-04-03T21:42:39.107Z,42.00
2019-04-03T21:45:08.769Z,38.47
2019-04-03T21:47:38.124Z,45.00
2019-04-03T21:50:10.093Z,47.80
2019-04-03T21:52:39.534Z,42.63
2019-04-03T21:55:09.339Z,40.30
2019-04-03T21:57:38.913Z,45.60
2019-04-03T22:00:13.110Z,43.13
2019-04-03T22:02:44.773Z,36.27
2019-04-03T22:05:12.840Z,43.53
2019-04-03T22:07:42.272Z,37.47
2019-04-03T22:10:11.601Z,34.87
2019-04-03T22:12:41.217Z,41.93
2019-04-03T22:15:13.548Z,39.13
2019-04-03T22:17:43.674Z,33.63
2019-04-03T22:20:13.175Z,40.57
2019-04-03T22:22:42.448Z,34.63
2019-04-03T22:25:11.688Z,37.23
2019-04-03T22:27:42.775Z,46.77
2019-04-03T22:30:12.495Z,35.40
2019-04-03T22:32:41.797Z,36.77
2019-04-03T22:35:11.399Z,53.73
2019-04-03T22:37:40.842Z,34.70
2019-04-03T22:40:10.879Z,41.73
2019-04-03T22:42:40.372Z,35.13
2019-04-03T22:45:09.742Z,37.03
2019-04-03T22:47:39.072Z,38.67
2019-04-03T22:50:08.585Z,33.57
2019-04-03T22:52:39.651Z,29.77
2019-04-03T22:55:09.265Z,36.70
2019-04-03T22:57:38.606Z,36.20
2019-04-03T23:00:08.687Z,39.83
2019-04-03T23:02:38.255Z,36.73
2019-04-03T23:05:08.582Z,33.80
2019-04-03T23:07:38.061Z,35.37
2019-04-03T23:10:08.020Z,40.23
2019-04-03T23:12:37.326Z,39.07
2019-04-03T23:15:09.406Z,37.63
2019-04-03T23:17:38.318Z,35.83
2019-04-03T23:20:07.859Z,42.87
2019-04-03T23:22:37.142Z,39.40
2019-04-03T23:25:06.819Z,36.30
2019-04-03T23:27:36.115Z,40.97
2019-04-03T23:30:05.562Z,43.50
2019-04-03T23:32:35.045Z,44.90
2019-04-03T23:35:04.850Z,34.20
2019-04-03T23:37:34.111Z,31.80
2019-04-03T23:40:03.564Z,37.80
2019-04-03T23:42:32.909Z,38.43
2019-04-03T23:45:02.182Z,30.63
2019-04-03T23:47:31.566Z,40.87
2019-04-03T23:50:00.928Z,45.00
2019-04-03T23:52:30.626Z,30.70
2019-04-03T23:54:59.931Z,30.83
2019-04-03T23:57:29.289Z,37.80
2019-04-03T23:59:58.628Z,41.07
